createdAt,value
2023-07-24T00:01:59.718Z,19.13
2023-07-24T00:04:31.555Z,19.14
2023-07-24T00:07:03.062Z,19.11
2023-07-24T00:09:34.599Z,19.11
2023-07-24T00:12:06.146Z,19.11
2023-07-24T00:14:37.666Z,19.11
2023-07-24T00:17:09.225Z,19.05
2023-07-24T00:19:40.920Z,19.02
2023-07-24T00:22:12.409Z,18.99
2023-07-24T00:24:43.938Z,18.97
2023-07-24T00:27:15.460Z,18.94
2023-07-24T00:29:47.304Z,18.94
2023-07-24T00:32:19.048Z,18.93
2023-07-24T00:34:50.885Z,18.89
2023-07-24T00:37:22.401Z,18.91
2023-07-24T00:39:53.903Z,18.84
2023-07-24T00:42:25.828Z,18.83
2023-07-24T00:44:57.374Z,18.84
2023-07-24T00:47:29.097Z,18.88
2023-07-24T00:50:00.598Z,18.90
2023-07-24T00:52:32.348Z,18.84
2023-07-24T00:55:03.853Z,18.86
2023-07-24T00:57:35.359Z,18.81
2023-07-24T01:00:06.889Z,18.82
2023-07-24T01:02:38.451Z,18.84
2023-07-24T01:05:10.553Z,18.83
2023-07-24T01:07:42.069Z,18.83
2023-07-24T01:10:13.640Z,18.77
2023-07-24T01:12:45.176Z,18.74
2023-07-24T01:15:16.959Z,18.74
2023-07-24T01:17:48.489Z,18.72
2023-07-24T01:20:20.378Z,18.68
2023-07-24T01:22:51.869Z,18.64
2023-07-24T01:25:23.374Z,18.52
2023-07-24T01:27:55.185Z,18.59
2023-07-24T01:30:26.736Z,18.63
2023-07-24T01:32:58.586Z,18.59
2023-07-24T01:35:30.198Z,18.64
2023-07-24T01:38:02.161Z,18.61
2023-07-24T01:40:33.641Z,18.61
2023-07-24T01:43:05.447Z,18.58
2023-07-24T01:45:36.979Z,18.63
2023-07-24T01:48:08.811Z,18.58
2023-07-24T01:50:40.331Z,18.61
2023-07-24T01:53:12.053Z,18.63
2023-07-24T01:55:43.535Z,18.58
2023-07-24T01:58:15.355Z,18.57
2023-07-24T02:00:47.106Z,18.51
2023-07-24T02:03:19.080Z,18.53
2023-07-24T02:05:51.046Z,18.56
2023-07-24T02:08:22.541Z,18.56
2023-07-24T02:10:54.294Z,18.55
2023-07-24T02:13:25.807Z,18.63
2023-07-24T02:15:57.777Z,18.62
2023-07-24T02:18:29.364Z,18.61
2023-07-24T02:21:01.169Z,18.62
2023-07-24T02:23:32.657Z,18.67
2023-07-24T02:26:04.459Z,18.70
2023-07-24T02:28:35.978Z,18.71
2023-07-24T02:31:07.845Z,18.69
2023-07-24T02:33:39.385Z,18.75
2023-07-24T02:36:10.915Z,18.77
2023-07-24T02:38:42.732Z,18.77
2023-07-24T02:41:14.221Z,18.77
2023-07-24T02:43:46.044Z,18.79
2023-07-24T02:46:17.562Z,18.73
2023-07-24T02:48:49.497Z,18.74
2023-07-24T02:51:20.986Z,18.79
2023-07-24T02:53:53.366Z,18.80
2023-07-24T02:56:24.923Z,18.83
2023-07-24T02:58:56.747Z,18.86
2023-07-24T03:01:28.599Z,18.78
2023-07-24T03:04:00.129Z,18.81
2023-07-24T03:06:31.812Z,18.80
2023-07-24T03:09:03.392Z,18.86
2023-07-24T03:11:34.935Z,18.82
2023-07-24T03:14:06.488Z,18.84
2023-07-24T03:16:37.981Z,18.88
2023-07-24T03:19:09.470Z,18.88
2023-07-24T03:21:41.483Z,18.87
2023-07-24T03:24:13.009Z,18.93
2023-07-24T03:26:44.850Z,18.90
2023-07-24T03:29:16.677Z,18.94
2023-07-24T03:31:48.493Z,18.94
2023-07-24T03:34:20.375Z,18.93
2023-07-24T03:36:51.880Z,18.98
2023-07-24T03:39:23.733Z,19.05
2023-07-24T03:41:55.235Z,19.03
2023-07-24T03:44:27.042Z,19.06
2023-07-24T03:46:58.540Z,19.04
2023-07-24T03:49:30.461Z,19.07
2023-07-24T03:52:01.993Z,19.14
2023-07-24T03:54:33.486Z,19.18
2023-07-24T03:57:05.333Z,19.21
2023-07-24T03:59:37.993Z,19.19
2023-07-24T04:02:10.823Z,19.24
2023-07-24T04:04:42.497Z,19.30
2023-07-24T04:07:13.991Z,19.36
2023-07-24T04:09:45.473Z,19.45
2023-07-24T04:12:17.316Z,19.44
2023-07-24T04:14:48.831Z,19.61
2023-07-24T04:17:20.606Z,19.66
2023-07-24T04:19:52.221Z,19.72
2023-07-24T04:22:23.725Z,19.80
2023-07-24T04:24:55.910Z,19.85
2023-07-24T04:27:27.744Z,20.02
2023-07-24T04:29:59.586Z,20.14
2023-07-24T04:32:31.167Z,20.13
2023-07-24T04:35:03.038Z,20.14
2023-07-24T04:37:34.535Z,20.20
2023-07-24T04:40:06.360Z,20.30
2023-07-24T04:42:37.842Z,20.60
2023-07-24T04:45:09.672Z,20.59
2023-07-24T04:47:41.165Z,20.75
2023-07-24T04:50:13.027Z,20.69
2023-07-24T04:52:44.863Z,20.66
2023-07-24T04:55:16.674Z,20.69
2023-07-24T04:57:48.217Z,20.62
2023-07-24T05:00:19.718Z,20.78
2023-07-24T05:02:51.584Z,21.01
2023-07-24T05:05:23.224Z,20.96
2023-07-24T05:07:55.027Z,21.33
2023-07-24T05:10:26.586Z,21.71
2023-07-24T05:12:58.571Z,21.39
2023-07-24T05:15:30.069Z,21.54
2023-07-24T05:18:01.992Z,21.59
2023-07-24T05:20:33.525Z,21.67
2023-07-24T05:23:05.357Z,21.52
2023-07-24T05:25:36.923Z,21.77
2023-07-24T05:28:08.733Z,21.82
2023-07-24T05:30:40.221Z,21.68
2023-07-24T05:33:11.721Z,21.80
2023-07-24T05:35:43.406Z,21.90
2023-07-24T05:38:14.897Z,22.40
2023-07-24T05:40:46.582Z,22.53
2023-07-24T05:43:18.074Z,22.67
2023-07-24T05:45:50.029Z,22.49
2023-07-24T05:48:21.571Z,22.53
2023-07-24T05:50:53.250Z,22.64
2023-07-24T05:53:24.744Z,22.37
2023-07-24T05:55:56.509Z,22.17
2023-07-24T05:58:28.367Z,22.69
2023-07-24T06:01:00.138Z,23.06
2023-07-24T06:03:32.005Z,23.14
2023-07-24T06:06:03.670Z,23.16
2023-07-24T06:08:35.240Z,23.11
2023-07-24T06:11:06.755Z,23.60
2023-07-24T06:13:38.331Z,23.89
2023-07-24T06:16:09.871Z,23.66
2023-07-24T06:18:41.675Z,23.56
2023-07-24T06:21:13.181Z,23.81
2023-07-24T06:23:45.231Z,23.80
2023-07-24T06:26:16.765Z,24.22
2023-07-24T06:28:48.576Z,24.06
2023-07-24T06:31:20.411Z,24.09
2023-07-24T06:33:51.901Z,24.05
2023-07-24T06:36:23.547Z,24.13
2023-07-24T06:38:55.044Z,24.55
2023-07-24T06:41:26.536Z,24.85
2023-07-24T06:43:58.011Z,24.78
2023-07-24T06:46:30.054Z,24.46
2023-07-24T06:49:01.716Z,24.23
2023-07-24T06:51:33.233Z,24.30
2023-07-24T06:54:04.724Z,24.82
2023-07-24T06:56:36.225Z,25.05
2023-07-24T06:59:07.756Z,25.42
2023-07-24T07:01:39.457Z,25.45
2023-07-24T07:04:11.050Z,24.93
2023-07-24T07:06:42.528Z,24.71
2023-07-24T07:09:14.405Z,24.89
2023-07-24T07:11:45.924Z,24.80
2023-07-24T07:14:17.447Z,25.25
2023-07-24T07:16:48.993Z,25.39
2023-07-24T07:19:20.853Z,25.27
2023-07-24T07:21:52.342Z,25.72
2023-07-24T07:24:23.990Z,25.56
2023-07-24T07:26:55.469Z,25.10
2023-07-24T07:29:27.271Z,25.51
2023-07-24T07:31:58.778Z,24.86
2023-07-24T07:34:30.562Z,25.17
2023-07-24T07:37:02.468Z,25.50
2023-07-24T07:39:33.950Z,25.15
2023-07-24T07:42:16.351Z,25.10
2023-07-24T07:44:49.945Z,24.78
2023-07-24T07:47:21.965Z,25.07
2023-07-24T07:49:53.491Z,24.86
2023-07-24T07:52:24.983Z,25.41
2023-07-24T07:54:57.563Z,26.44
2023-07-24T07:57:31.002Z,25.80
2023-07-24T08:00:02.525Z,26.08
2023-07-24T08:02:34.081Z,26.35
2023-07-24T08:05:17.063Z,26.61
2023-07-24T08:07:51.641Z,26.25
2023-07-24T08:10:23.809Z,25.82
2023-07-24T08:12:55.390Z,26.04
2023-07-24T08:15:26.956Z,26.00
2023-07-24T08:17:58.509Z,26.89
2023-07-24T08:20:30.059Z,27.27
2023-07-24T08:23:02.017Z,26.72
2023-07-24T08:25:33.527Z,26.24
2023-07-24T08:28:06.506Z,26.80
2023-07-24T08:30:38.438Z,26.03
2023-07-24T08:33:10.665Z,26.40
2023-07-24T08:35:42.255Z,26.29
2023-07-24T08:38:13.883Z,26.16
2023-07-24T08:40:45.392Z,25.94
2023-07-24T08:43:17.242Z,26.16
2023-07-24T08:45:48.809Z,25.82
2023-07-24T08:48:20.655Z,25.88
2023-07-24T08:50:52.176Z,27.02
2023-07-24T08:53:23.679Z,27.24
2023-07-24T08:55:55.497Z,26.91
2023-07-24T08:58:27.392Z,27.15
2023-07-24T09:00:59.285Z,27.23
2023-07-24T09:03:31.011Z,27.47
2023-07-24T09:06:03.138Z,27.63
2023-07-24T09:08:34.733Z,28.14
2023-07-24T09:11:06.382Z,27.66
2023-07-24T09:13:37.873Z,27.51
2023-07-24T09:16:09.815Z,27.26
2023-07-24T09:18:41.361Z,27.14
2023-07-24T09:21:12.952Z,26.67
2023-07-24T09:23:44.479Z,26.71
2023-07-24T09:26:16.410Z,26.60
2023-07-24T09:28:47.933Z,26.71
2023-07-24T09:31:19.440Z,26.95
2023-07-24T09:33:51.268Z,26.82
2023-07-24T09:36:22.763Z,27.67
2023-07-24T09:38:54.425Z,28.45
2023-07-24T09:41:26.121Z,28.24
2023-07-24T09:43:57.642Z,27.49
2023-07-24T09:46:29.366Z,27.43
2023-07-24T09:51:35.667Z,27.97
2023-07-24T09:54:07.360Z,28.34
2023-07-24T09:56:49.059Z,27.51
2023-07-24T09:59:23.636Z,27.47
2023-07-24T10:01:55.643Z,26.95
2023-07-24T10:04:27.211Z,26.67
2023-07-24T10:06:58.913Z,26.31
2023-07-24T10:09:30.899Z,26.84
2023-07-24T10:12:02.883Z,27.70
2023-07-24T10:14:34.421Z,28.20
2023-07-24T10:17:06.250Z,28.54
2023-07-24T10:19:37.799Z,28.92
2023-07-24T10:22:09.627Z,28.27
2023-07-24T10:24:42.795Z,28.20
2023-07-24T10:27:14.677Z,27.17
2023-07-24T10:29:46.623Z,27.38
2023-07-24T10:32:18.226Z,28.13
2023-07-24T10:34:50.055Z,28.65
2023-07-24T10:37:21.544Z,28.79
2023-07-24T10:39:53.247Z,28.63
2023-07-24T10:42:24.772Z,27.67
2023-07-24T10:44:56.600Z,29.16
2023-07-24T10:47:28.209Z,28.76
2023-07-24T10:50:00.065Z,28.65
2023-07-24T10:52:31.568Z,29.27
2023-07-24T10:55:03.614Z,29.94
2023-07-24T10:57:35.129Z,30.36
2023-07-24T11:00:06.659Z,30.44
2023-07-24T11:02:38.233Z,30.05
2023-07-24T11:05:09.856Z,30.40
2023-07-24T11:07:41.699Z,31.19
2023-07-24T11:10:13.281Z,30.74
2023-07-24T11:12:45.118Z,29.68
2023-07-24T11:15:16.601Z,28.48
2023-07-24T11:17:48.347Z,28.93
2023-07-24T11:20:19.864Z,29.36
2023-07-24T11:22:51.367Z,29.34
2023-07-24T11:25:22.865Z,29.45
2023-07-24T11:27:54.734Z,29.28
2023-07-24T11:30:26.554Z,30.17
2023-07-24T11:32:58.110Z,29.48
2023-07-24T11:35:29.922Z,29.42
2023-07-24T11:38:01.453Z,28.92
2023-07-24T11:40:32.941Z,30.21
2023-07-24T11:43:04.438Z,29.12
2023-07-24T11:45:35.978Z,30.25
2023-07-24T11:48:07.532Z,29.10
2023-07-24T11:50:39.039Z,28.65
2023-07-24T11:53:10.518Z,28.68
2023-07-24T11:55:42.408Z,28.59
2023-07-24T11:58:14.216Z,28.38
2023-07-24T12:00:45.710Z,29.30
2023-07-24T12:03:17.648Z,29.40
2023-07-24T12:05:50.814Z,28.73
2023-07-24T12:08:22.777Z,28.49
2023-07-24T12:10:54.269Z,28.38
2023-07-24T12:13:25.928Z,28.38
2023-07-24T12:15:57.449Z,28.30
2023-07-24T12:18:29.380Z,28.04
2023-07-24T12:21:00.868Z,28.42
2023-07-24T12:23:32.382Z,28.31
2023-07-24T12:26:03.900Z,27.64
2023-07-24T12:28:35.434Z,27.21
2023-07-24T12:31:07.362Z,27.35
2023-07-24T12:33:38.909Z,27.44
2023-07-24T12:36:10.706Z,27.34
2023-07-24T12:38:42.208Z,27.51
2023-07-24T12:41:14.062Z,27.80
2023-07-24T12:43:45.540Z,28.32
2023-07-24T12:46:17.244Z,28.42
2023-07-24T12:48:48.744Z,29.05
2023-07-24T12:51:20.289Z,28.84
2023-07-24T12:53:59.420Z,28.20
2023-07-24T12:56:43.492Z,27.13
2023-07-24T12:59:15.322Z,26.73
2023-07-24T13:01:46.804Z,26.54
2023-07-24T13:04:18.626Z,25.98
2023-07-24T13:06:50.120Z,25.55
2023-07-24T13:09:22.159Z,25.78
2023-07-24T13:11:53.730Z,27.49
2023-07-24T13:14:25.808Z,28.31
2023-07-24T13:16:57.373Z,28.18
2023-07-24T13:19:29.276Z,28.36
2023-07-24T13:22:01.121Z,28.29
2023-07-24T13:24:33.043Z,27.96
2023-07-24T13:27:04.936Z,27.86
2023-07-24T13:29:36.432Z,28.68
2023-07-24T13:32:08.222Z,29.19
2023-07-24T13:34:39.742Z,29.33
2023-07-24T13:37:11.548Z,29.36
2023-07-24T13:39:43.039Z,29.85
2023-07-24T13:42:14.920Z,29.61
2023-07-24T13:44:46.488Z,29.83
2023-07-24T13:47:18.265Z,29.31
2023-07-24T13:49:50.108Z,29.18
2023-07-24T13:52:21.917Z,28.90
2023-07-24T13:54:53.421Z,28.81
2023-07-24T13:57:24.901Z,28.81
2023-07-24T13:59:56.391Z,28.23
2023-07-24T14:02:28.003Z,28.19
2023-07-24T14:04:59.873Z,27.55
2023-07-24T14:07:31.358Z,27.41
2023-07-24T14:10:02.857Z,27.16
2023-07-24T14:12:34.401Z,27.17
2023-07-24T14:15:06.323Z,27.32
2023-07-24T14:17:38.090Z,27.44
2023-07-24T14:20:09.625Z,27.29
2023-07-24T14:22:41.124Z,27.49
2023-07-24T14:25:12.648Z,27.38
2023-07-24T14:27:44.496Z,27.18
2023-07-24T14:30:15.984Z,26.91
2023-07-24T14:32:51.040Z,26.85
2023-07-24T14:35:22.575Z,26.62
2023-07-24T14:37:54.072Z,26.47
2023-07-24T14:40:25.553Z,26.65
2023-07-24T14:42:57.048Z,26.51
2023-07-24T14:45:28.594Z,26.46
2023-07-24T14:48:00.461Z,26.55
2023-07-24T14:50:32.318Z,26.55
2023-07-24T14:53:03.802Z,26.71
2023-07-24T14:55:35.789Z,26.71
2023-07-24T14:58:07.296Z,26.63
2023-07-24T15:00:38.821Z,26.40
2023-07-24T15:03:10.316Z,26.64
2023-07-24T15:05:41.815Z,26.73
2023-07-24T15:08:13.570Z,26.80
2023-07-24T15:10:45.292Z,26.70
2023-07-24T15:13:16.810Z,26.63
2023-07-24T15:15:48.641Z,26.72
2023-07-24T15:18:20.414Z,26.88
2023-07-24T15:20:51.910Z,26.99
2023-07-24T15:23:23.756Z,26.85
2023-07-24T15:25:55.280Z,27.02
2023-07-24T15:28:27.092Z,27.27
2023-07-24T15:30:58.590Z,29.58
2023-07-24T15:33:30.368Z,29.46
2023-07-24T15:36:01.897Z,29.89
2023-07-24T15:38:33.741Z,32.07
2023-07-24T15:41:05.230Z,32.38
2023-07-24T15:43:36.905Z,32.30
2023-07-24T15:46:08.935Z,32.57
2023-07-24T15:48:40.815Z,32.76
2023-07-24T15:51:12.672Z,32.46
2023-07-24T15:53:44.182Z,32.04
2023-07-24T15:56:15.710Z,32.13
2023-07-24T15:58:47.188Z,32.68
2023-07-24T16:01:19.122Z,32.13
2023-07-24T16:03:50.653Z,31.70
2023-07-24T16:06:22.461Z,30.93
2023-07-24T16:08:53.957Z,30.17
2023-07-24T16:11:25.693Z,29.56
2023-07-24T16:13:57.185Z,29.36
2023-07-24T16:16:29.050Z,28.74
2023-07-24T16:19:02.145Z,28.93
2023-07-24T16:21:33.675Z,28.94
2023-07-24T16:24:05.598Z,28.44
2023-07-24T16:26:37.092Z,28.17
2023-07-24T16:29:10.876Z,28.67
2023-07-24T16:31:42.831Z,28.97
2023-07-24T16:34:14.649Z,29.00
2023-07-24T16:36:46.503Z,29.20
2023-07-24T16:39:18.360Z,29.08
2023-07-24T16:41:50.842Z,28.39
2023-07-24T16:44:33.212Z,27.87
2023-07-24T16:49:39.877Z,27.39
2023-07-24T16:52:11.722Z,27.30
2023-07-24T16:54:43.234Z,27.27
2023-07-24T16:57:15.131Z,27.14
2023-07-24T16:59:46.630Z,27.01
2023-07-24T17:02:18.642Z,26.80
2023-07-24T17:04:50.323Z,26.61
2023-07-24T17:07:22.111Z,26.31
2023-07-24T17:09:53.620Z,26.17
2023-07-24T17:12:25.421Z,25.97
2023-07-24T17:14:56.947Z,25.77
2023-07-24T17:17:28.518Z,25.70
2023-07-24T17:20:00.237Z,25.73
2023-07-24T17:22:31.740Z,25.74
2023-07-24T17:25:03.335Z,25.67
2023-07-24T17:27:34.890Z,24.70
2023-07-24T17:30:06.941Z,22.24
2023-07-24T17:32:38.482Z,17.87
2023-07-24T17:35:10.276Z,16.92
2023-07-24T17:37:41.774Z,16.73
2023-07-24T17:40:13.598Z,16.57
2023-07-24T17:42:45.452Z,16.58
2023-07-24T17:45:16.953Z,16.63
2023-07-24T17:47:48.847Z,16.57
2023-07-24T17:50:20.383Z,16.67
2023-07-24T17:52:51.949Z,16.70
2023-07-24T17:55:23.495Z,16.60
2023-07-24T17:57:54.983Z,16.60
2023-07-24T18:00:26.492Z,16.67
2023-07-24T18:02:58.090Z,16.64
2023-07-24T18:05:29.682Z,16.56
2023-07-24T18:08:01.349Z,16.64
2023-07-24T18:10:33.588Z,16.57
2023-07-24T18:13:05.102Z,16.75
2023-07-24T18:15:36.645Z,16.79
2023-07-24T18:18:08.179Z,16.88
2023-07-24T18:20:40.020Z,16.82
2023-07-24T18:23:11.542Z,16.93
2023-07-24T18:25:43.521Z,16.86
2023-07-24T18:28:15.044Z,16.90
2023-07-24T18:30:46.849Z,16.91
2023-07-24T18:33:18.331Z,16.93
2023-07-24T18:35:52.507Z,17.00
2023-07-24T18:38:26.187Z,17.10
2023-07-24T18:40:57.691Z,17.28
2023-07-24T18:43:29.502Z,17.36
2023-07-24T18:46:01.101Z,17.43
2023-07-24T18:48:33.065Z,17.39
2023-07-24T18:51:04.565Z,17.49
2023-07-24T18:53:36.460Z,17.52
2023-07-24T18:56:07.951Z,17.53
2023-07-24T18:58:39.884Z,17.40
2023-07-24T19:01:11.388Z,17.36
2023-07-24T19:03:43.256Z,17.31
2023-07-24T19:06:15.028Z,17.24
2023-07-24T19:08:46.868Z,17.10
2023-07-24T19:11:18.662Z,17.07
2023-07-24T19:13:50.158Z,17.08
2023-07-24T19:16:22.006Z,17.08
2023-07-24T19:18:53.544Z,17.07
2023-07-24T19:21:25.330Z,17.06
2023-07-24T19:23:56.869Z,17.10
2023-07-24T19:26:28.879Z,17.06
2023-07-24T19:29:00.381Z,17.00
2023-07-24T19:31:32.409Z,16.95
2023-07-24T19:34:04.803Z,16.74
2023-07-24T19:36:36.706Z,16.74
2023-07-24T19:39:09.715Z,16.69
2023-07-24T19:41:41.232Z,16.56
2023-07-24T19:44:13.089Z,16.58
2023-07-24T19:46:44.618Z,16.57
2023-07-24T19:49:16.497Z,16.56
2023-07-24T19:51:47.996Z,16.60
2023-07-24T19:54:19.731Z,16.61
2023-07-24T19:56:51.264Z,16.60
2023-07-24T19:59:23.106Z,16.57
2023-07-24T20:01:54.804Z,16.51
2023-07-24T20:04:26.816Z,16.45
2023-07-24T20:06:58.312Z,16.45
2023-07-24T20:09:29.793Z,16.48
2023-07-24T20:12:01.537Z,16.48
2023-07-24T20:14:33.051Z,16.50
2023-07-24T20:17:04.947Z,16.50
2023-07-24T20:19:36.510Z,16.47
2023-07-24T20:22:08.412Z,16.40
2023-07-24T20:24:39.985Z,16.45
2023-07-24T20:27:11.676Z,16.36
2023-07-24T20:29:43.193Z,16.40
2023-07-24T20:32:14.991Z,16.38
2023-07-24T20:34:46.989Z,16.32
2023-07-24T20:37:18.633Z,16.28
2023-07-24T20:39:50.388Z,16.33
2023-07-24T20:42:21.880Z,16.34
2023-07-24T20:44:53.376Z,16.32
2023-07-24T20:47:24.906Z,16.28
2023-07-24T20:49:56.435Z,16.26
2023-07-24T20:52:27.929Z,16.24
2023-07-24T20:54:59.852Z,16.19
2023-07-24T20:57:31.367Z,16.15
2023-07-24T21:00:03.039Z,16.17
2023-07-24T21:02:34.960Z,16.17
2023-07-24T21:05:06.913Z,16.16
2023-07-24T21:07:38.839Z,16.14
2023-07-24T21:10:10.362Z,16.11
2023-07-24T21:12:42.046Z,16.12
2023-07-24T21:15:13.563Z,16.06
2023-07-24T21:17:45.438Z,16.04
2023-07-24T21:20:16.954Z,15.97
2023-07-24T21:22:48.809Z,15.97
2023-07-24T21:25:20.391Z,15.94
2023-07-24T21:27:51.903Z,15.98
2023-07-24T21:30:23.733Z,15.94
2023-07-24T21:32:55.292Z,15.94
2023-07-24T21:35:26.826Z,15.94
2023-07-24T21:37:58.326Z,15.97
2023-07-24T21:40:30.213Z,15.94
2023-07-24T21:43:01.701Z,15.94
2023-07-24T21:45:33.568Z,15.87
2023-07-24T21:48:05.121Z,15.39
2023-07-24T21:50:37.080Z,15.83
2023-07-24T21:53:08.579Z,15.82
2023-07-24T21:55:40.384Z,15.84
2023-07-24T21:58:11.907Z,15.83
2023-07-24T22:00:43.427Z,15.78
2023-07-24T22:03:15.269Z,15.78
2023-07-24T22:05:46.821Z,15.78
2023-07-24T22:08:18.682Z,15.72
2023-07-24T22:10:50.166Z,15.75
2023-07-24T22:13:21.995Z,15.73
2023-07-24T22:15:53.505Z,15.66
2023-07-24T22:18:25.406Z,15.63
2023-07-24T22:20:56.975Z,15.58
2023-07-24T22:23:28.902Z,15.60
2023-07-24T22:26:00.419Z,15.58
2023-07-24T22:28:32.243Z,15.49
2023-07-24T22:31:04.136Z,15.48
2023-07-24T22:33:36.015Z,15.46
2023-07-24T22:36:07.867Z,15.44
2023-07-24T22:38:39.461Z,15.42
2023-07-24T22:41:11.199Z,15.39
2023-07-24T22:43:42.727Z,15.33
2023-07-24T22:46:14.607Z,15.35
2023-07-24T22:48:46.309Z,15.34
2023-07-24T22:51:18.173Z,15.28
2023-07-24T22:53:49.670Z,15.28
2023-07-24T22:56:21.211Z,15.22
2023-07-24T22:58:52.731Z,15.18
2023-07-24T23:01:24.608Z,15.15
2023-07-24T23:03:56.174Z,15.13
2023-07-24T23:06:27.691Z,15.10
2023-07-24T23:08:59.522Z,15.08
2023-07-24T23:11:31.306Z,14.99
2023-07-24T23:14:03.240Z,15.00
2023-07-24T23:16:34.773Z,14.98
2023-07-24T23:19:06.620Z,14.95
2023-07-24T23:21:38.145Z,14.96
2023-07-24T23:24:10.003Z,14.95
2023-07-24T23:26:41.906Z,14.92
2023-07-24T23:29:13.611Z,14.88
2023-07-24T23:31:45.111Z,14.86
2023-07-24T23:34:16.653Z,14.85
2023-07-24T23:36:48.336Z,14.83
2023-07-24T23:39:19.816Z,14.84
2023-07-24T23:41:52.645Z,14.82
2023-07-24T23:44:24.149Z,14.76
2023-07-24T23:46:55.659Z,14.75
2023-07-24T23:49:27.152Z,14.78
2023-07-24T23:51:58.825Z,14.74
2023-07-24T23:54:30.655Z,14.77
2023-07-24T23:57:02.186Z,14.77
2023-07-24T23:59:34.099Z,14.75
